sensor_id;sensor_type;location;lat;lon;timestamp;temperature;humidity
43673;DHT22;41723;49.326;8.430;2023-01-16T00:01:36;6.20;99.90
43673;DHT22;41723;49.326;8.430;2023-01-16T00:04:01;6.30;99.90
43673;DHT22;41723;49.326;8.430;2023-01-16T00:06:27;6.20;99.90
43673;DHT22;41723;49.326;8.430;2023-01-16T00:08:52;6.30;99.90
43673;DHT22;41723;49.326;8.430;2023-01-16T00:11:18;6.30;99.90
43673;DHT22;41723;49.326;8.430;2023-01-16T00:13:44;6.30;99.90
43673;DHT22;41723;49.326;8.430;2023-01-16T00:16:09;6.20;99.90
43673;DHT22;41723;49.326;8.430;2023-01-16T00:18:35;6.20;99.90
43673;DHT22;41723;49.326;8.430;2023-01-16T00:21:01;6.20;99.90
43673;DHT22;41723;49.326;8.430;2023-01-16T00:23:26;6.20;99.90
43673;DHT22;41723;49.326;8.430;2023-01-16T00:25:52;6.20;99.90
43673;DHT22;41723;49.326;8.430;2023-01-16T00:28:18;6.30;99.90
43673;DHT22;41723;49.326;8.430;2023-01-16T00:30:44;6.30;99.90
43673;DHT22;41723;49.326;8.430;2023-01-16T00:33:09;6.30;99.90
43673;DHT22;41723;49.326;8.430;2023-01-16T00:35:35;6.30;99.90
43673;DHT22;41723;49.326;8.430;2023-01-16T00:38:01;6.30;99.90
43673;DHT22;41723;49.326;8.430;2023-01-16T00:40:27;6.20;99.90
43673;DHT22;41723;49.326;8.430;2023-01-16T00:42:52;6.20;99.90
43673;DHT22;41723;49.326;8.430;2023-01-16T00:45:18;6.10;99.90
43673;DHT22;41723;49.326;8.430;2023-01-16T00:47:44;6.00;99.90
43673;DHT22;41723;49.326;8.430;2023-01-16T00:50:09;6.00;99.90
43673;DHT22;41723;49.326;8.430;2023-01-16T00:52:35;6.00;99.90
43673;DHT22;41723;49.326;8.430;2023-01-16T00:55:01;5.90;99.90
43673;DHT22;41723;49.326;8.430;2023-01-16T00:57:27;5.90;99.90
43673;DHT22;41723;49.326;8.430;2023-01-16T00:59:52;6.00;99.90
43673;DHT22;41723;49.326;8.430;2023-01-16T01:02:18;6.00;99.90
43673;DHT22;41723;49.326;8.430;2023-01-16T01:04:43;6.00;99.90
43673;DHT22;41723;49.326;8.430;2023-01-16T01:07:09;6.00;99.90
43673;DHT22;41723;49.326;8.430;2023-01-16T01:09:35;6.00;99.90
43673;DHT22;41723;49.326;8.430;2023-01-16T01:12:00;6.10;99.90
43673;DHT22;41723;49.326;8.430;2023-01-16T01:14:26;6.10;99.90
43673;DHT22;41723;49.326;8.430;2023-01-16T01:16:52;6.20;99.90
43673;DHT22;41723;49.326;8.430;2023-01-16T01:19:18;6.20;99.90
43673;DHT22;41723;49.326;8.430;2023-01-16T01:21:43;6.10;99.90
43673;DHT22;41723;49.326;8.430;2023-01-16T01:24:09;6.00;99.90
43673;DHT22;41723;49.326;8.430;2023-01-16T01:26:34;6.10;99.90
43673;DHT22;41723;49.326;8.430;2023-01-16T01:29:00;6.00;99.90
43673;DHT22;41723;49.326;8.430;2023-01-16T01:31:26;6.10;99.90
43673;DHT22;41723;49.326;8.430;2023-01-16T01:33:51;6.10;99.90
43673;DHT22;41723;49.326;8.430;2023-01-16T01:36:17;6.00;99.90
43673;DHT22;41723;49.326;8.430;2023-01-16T01:38:42;6.10;99.90
43673;DHT22;41723;49.326;8.430;2023-01-16T01:41:08;6.30;99.90
43673;DHT22;41723;49.326;8.430;2023-01-16T01:43:44;6.30;99.90
43673;DHT22;41723;49.326;8.430;2023-01-16T01:46:18;6.30;99.90
43673;DHT22;41723;49.326;8.430;2023-01-16T01:48:45;6.30;99.90
43673;DHT22;41723;49.326;8.430;2023-01-16T01:51:17;6.30;99.90
43673;DHT22;41723;49.326;8.430;2023-01-16T01:54:02;6.30;99.90
43673;DHT22;41723;49.326;8.430;2023-01-16T01:56:36;6.30;99.90
43673;DHT22;41723;49.326;8.430;2023-01-16T01:59:11;6.30;99.90
43673;DHT22;41723;49.326;8.430;2023-01-16T02:01:38;6.30;99.90
43673;DHT22;41723;49.326;8.430;2023-01-16T02:04:05;6.30;99.90
43673;DHT22;41723;49.326;8.430;2023-01-16T02:07:06;6.40;99.90
43673;DHT22;41723;49.326;8.430;2023-01-16T02:09:25;6.30;99.90
43673;DHT22;41723;49.326;8.430;2023-01-16T02:14:17;6.20;99.90
43673;DHT22;41723;49.326;8.430;2023-01-16T02:16:44;6.30;99.90
43673;DHT22;41723;49.326;8.430;2023-01-16T02:29:46;6.00;99.90
43673;DHT22;41723;49.326;8.430;2023-01-16T02:32:18;5.90;99.90
43673;DHT22;41723;49.326;8.430;2023-01-16T02:35:08;5.90;99.90
43673;DHT22;41723;49.326;8.430;2023-01-16T02:37:54;6.00;99.90
43673;DHT22;41723;49.326;8.430;2023-01-16T02:43:02;5.90;99.90
43673;DHT22;41723;49.326;8.430;2023-01-16T02:45:33;5.90;99.90
43673;DHT22;41723;49.326;8.430;2023-01-16T02:53:17;5.90;99.90
43673;DHT22;41723;49.326;8.430;2023-01-16T02:55:47;5.90;99.90
43673;DHT22;41723;49.326;8.430;2023-01-16T02:58:14;6.00;99.90
43673;DHT22;41723;49.326;8.430;2023-01-16T03:00:53;5.90;99.90
43673;DHT22;41723;49.326;8.430;2023-01-16T03:11:23;5.90;99.90
43673;DHT22;41723;49.326;8.430;2023-01-16T03:13:54;6.00;99.90
43673;DHT22;41723;49.326;8.430;2023-01-16T03:16:26;6.10;99.90
43673;DHT22;41723;49.326;8.430;2023-01-16T03:19:27;6.10;99.90
43673;DHT22;41723;49.326;8.430;2023-01-16T03:27:11;6.20;99.90
43673;DHT22;41723;49.326;8.430;2023-01-16T03:29:48;6.20;99.90
43673;DHT22;41723;49.326;8.430;2023-01-16T03:34:53;6.20;99.90
43673;DHT22;41723;49.326;8.430;2023-01-16T03:39:51;6.30;99.90
43673;DHT22;41723;49.326;8.430;2023-01-16T03:42:19;6.30;99.90
43673;DHT22;41723;49.326;8.430;2023-01-16T03:44:51;6.30;99.90
43673;DHT22;41723;49.326;8.430;2023-01-16T03:47:19;6.40;99.90
43673;DHT22;41723;49.326;8.430;2023-01-16T03:49:49;6.40;99.90
43673;DHT22;41723;49.326;8.430;2023-01-16T03:52:17;6.40;99.90
43673;DHT22;41723;49.326;8.430;2023-01-16T03:54:45;6.40;99.90
43673;DHT22;41723;49.326;8.430;2023-01-16T03:57:26;6.40;99.90
43673;DHT22;41723;49.326;8.430;2023-01-16T03:59:55;6.40;99.90
43673;DHT22;41723;49.326;8.430;2023-01-16T04:02:34;6.40;99.90
43673;DHT22;41723;49.326;8.430;2023-01-16T04:05:49;6.50;99.90
43673;DHT22;41723;49.326;8.430;2023-01-16T04:08:02;6.50;99.90
43673;DHT22;41723;49.326;8.430;2023-01-16T04:10:30;6.40;99.90
43673;DHT22;41723;49.326;8.430;2023-01-16T04:12:58;6.40;99.90
43673;DHT22;41723;49.326;8.430;2023-01-16T04:15:24;6.40;99.90
43673;DHT22;41723;49.326;8.430;2023-01-16T04:17:50;6.40;99.90
43673;DHT22;41723;49.326;8.430;2023-01-16T04:20:16;6.40;99.90
43673;DHT22;41723;49.326;8.430;2023-01-16T04:22:46;6.40;99.90
43673;DHT22;41723;49.326;8.430;2023-01-16T04:25:12;6.40;99.90
43673;DHT22;41723;49.326;8.430;2023-01-16T04:27:37;6.40;99.90
43673;DHT22;41723;49.326;8.430;2023-01-16T04:30:03;6.50;99.90
43673;DHT22;41723;49.326;8.430;2023-01-16T04:32:29;6.40;99.90
43673;DHT22;41723;49.326;8.430;2023-01-16T04:34:54;6.40;99.90
43673;DHT22;41723;49.326;8.430;2023-01-16T04:37:20;6.40;99.90
43673;DHT22;41723;49.326;8.430;2023-01-16T04:39:45;6.40;99.90
43673;DHT22;41723;49.326;8.430;2023-01-16T04:42:12;6.40;99.90
43673;DHT22;41723;49.326;8.430;2023-01-16T04:44:38;6.40;99.90
43673;DHT22;41723;49.326;8.430;2023-01-16T04:47:04;6.50;99.90
43673;DHT22;41723;49.326;8.430;2023-01-16T04:49:30;6.50;99.90
43673;DHT22;41723;49.326;8.430;2023-01-16T04:51:55;6.50;99.90
43673;DHT22;41723;49.326;8.430;2023-01-16T04:54:21;6.50;99.90
43673;DHT22;41723;49.326;8.430;2023-01-16T04:56:46;6.50;99.90
43673;DHT22;41723;49.326;8.430;2023-01-16T04:59:12;6.60;99.90
43673;DHT22;41723;49.326;8.430;2023-01-16T05:01:41;6.60;99.90
43673;DHT22;41723;49.326;8.430;2023-01-16T05:04:08;6.60;99.90
43673;DHT22;41723;49.326;8.430;2023-01-16T05:06:34;6.70;99.90
43673;DHT22;41723;49.326;8.430;2023-01-16T05:09:00;6.60;99.90
43673;DHT22;41723;49.326;8.430;2023-01-16T05:11:25;6.70;99.90
43673;DHT22;41723;49.326;8.430;2023-01-16T05:13:51;6.70;99.90
43673;DHT22;41723;49.326;8.430;2023-01-16T05:16:16;6.80;99.90
43673;DHT22;41723;49.326;8.430;2023-01-16T05:18:42;6.90;99.90
43673;DHT22;41723;49.326;8.430;2023-01-16T05:21:08;6.90;99.90
43673;DHT22;41723;49.326;8.430;2023-01-16T05:23:33;6.90;99.90
43673;DHT22;41723;49.326;8.430;2023-01-16T05:26:00;6.90;99.90
43673;DHT22;41723;49.326;8.430;2023-01-16T05:28:26;7.00;99.90
43673;DHT22;41723;49.326;8.430;2023-01-16T05:30:51;6.90;99.90
43673;DHT22;41723;49.326;8.430;2023-01-16T05:33:17;6.80;99.90
43673;DHT22;41723;49.326;8.430;2023-01-16T05:35:44;6.80;99.90
43673;DHT22;41723;49.326;8.430;2023-01-16T05:38:09;6.80;99.90
43673;DHT22;41723;49.326;8.430;2023-01-16T05:40:35;6.80;99.90
43673;DHT22;41723;49.326;8.430;2023-01-16T05:43:00;6.90;99.90
43673;DHT22;41723;49.326;8.430;2023-01-16T05:45:26;6.90;99.90
43673;DHT22;41723;49.326;8.430;2023-01-16T05:47:52;6.80;99.90
43673;DHT22;41723;49.326;8.430;2023-01-16T05:50:17;6.80;99.90
43673;DHT22;41723;49.326;8.430;2023-01-16T05:52:43;6.80;99.90
43673;DHT22;41723;49.326;8.430;2023-01-16T05:55:08;6.80;99.90
43673;DHT22;41723;49.326;8.430;2023-01-16T05:57:34;6.80;99.90
43673;DHT22;41723;49.326;8.430;2023-01-16T05:59:59;6.70;99.90
43673;DHT22;41723;49.326;8.430;2023-01-16T06:02:25;6.80;99.90
43673;DHT22;41723;49.326;8.430;2023-01-16T06:04:51;6.80;99.90
43673;DHT22;41723;49.326;8.430;2023-01-16T06:07:17;6.90;99.90
43673;DHT22;41723;49.326;8.430;2023-01-16T06:09:42;6.80;99.90
43673;DHT22;41723;49.326;8.430;2023-01-16T06:12:11;6.80;99.90
43673;DHT22;41723;49.326;8.430;2023-01-16T06:14:37;6.80;99.90
43673;DHT22;41723;49.326;8.430;2023-01-16T06:17:02;6.60;99.90
43673;DHT22;41723;49.326;8.430;2023-01-16T06:19:28;6.60;99.90
43673;DHT22;41723;49.326;8.430;2023-01-16T06:21:53;6.60;99.90
43673;DHT22;41723;49.326;8.430;2023-01-16T06:24:19;6.60;99.90
43673;DHT22;41723;49.326;8.430;2023-01-16T06:26:44;6.60;99.90
43673;DHT22;41723;49.326;8.430;2023-01-16T06:29:10;6.60;99.90
43673;DHT22;41723;49.326;8.430;2023-01-16T06:31:36;6.70;99.90
43673;DHT22;41723;49.326;8.430;2023-01-16T06:34:01;6.70;99.90
43673;DHT22;41723;49.326;8.430;2023-01-16T06:36:27;6.70;99.90
43673;DHT22;41723;49.326;8.430;2023-01-16T06:38:53;6.70;99.90
43673;DHT22;41723;49.326;8.430;2023-01-16T06:41:18;6.70;99.90
43673;DHT22;41723;49.326;8.430;2023-01-16T06:43:44;6.60;99.90
43673;DHT22;41723;49.326;8.430;2023-01-16T06:46:09;6.60;99.90
43673;DHT22;41723;49.326;8.430;2023-01-16T06:48:35;6.60;99.90
43673;DHT22;41723;49.326;8.430;2023-01-16T06:51:01;6.60;99.90
43673;DHT22;41723;49.326;8.430;2023-01-16T06:53:26;6.70;99.90
43673;DHT22;41723;49.326;8.430;2023-01-16T06:55:52;6.60;99.90
43673;DHT22;41723;49.326;8.430;2023-01-16T06:58:18;6.60;99.90
43673;DHT22;41723;49.326;8.430;2023-01-16T07:00:43;6.60;99.90
43673;DHT22;41723;49.326;8.430;2023-01-16T07:03:10;6.50;99.90
43673;DHT22;41723;49.326;8.430;2023-01-16T07:05:35;6.40;99.90
43673;DHT22;41723;49.326;8.430;2023-01-16T07:08:01;6.50;99.90
43673;DHT22;41723;49.326;8.430;2023-01-16T07:10:27;6.50;99.90
43673;DHT22;41723;49.326;8.430;2023-01-16T07:12:53;6.40;99.90
43673;DHT22;41723;49.326;8.430;2023-01-16T07:15:19;6.40;99.90
43673;DHT22;41723;49.326;8.430;2023-01-16T07:18:03;6.40;99.90
43673;DHT22;41723;49.326;8.430;2023-01-16T07:20:51;6.30;99.90
43673;DHT22;41723;49.326;8.430;2023-01-16T07:23:35;6.30;99.90
43673;DHT22;41723;49.326;8.430;2023-01-16T07:26:02;6.30;99.90
43673;DHT22;41723;49.326;8.430;2023-01-16T07:28:28;6.20;99.90
43673;DHT22;41723;49.326;8.430;2023-01-16T07:30:55;6.20;99.90
43673;DHT22;41723;49.326;8.430;2023-01-16T07:33:20;6.20;99.90
43673;DHT22;41723;49.326;8.430;2023-01-16T07:35:46;6.20;99.90
43673;DHT22;41723;49.326;8.430;2023-01-16T07:38:12;6.20;99.90
43673;DHT22;41723;49.326;8.430;2023-01-16T07:40:37;6.10;99.90
43673;DHT22;41723;49.326;8.430;2023-01-16T07:43:03;6.10;99.90
43673;DHT22;41723;49.326;8.430;2023-01-16T07:45:28;6.10;99.90
43673;DHT22;41723;49.326;8.430;2023-01-16T07:47:55;6.20;99.90
43673;DHT22;41723;49.326;8.430;2023-01-16T07:50:20;6.10;99.90
43673;DHT22;41723;49.326;8.430;2023-01-16T07:52:46;6.20;99.90
43673;DHT22;41723;49.326;8.430;2023-01-16T07:55:12;6.20;99.90
43673;DHT22;41723;49.326;8.430;2023-01-16T07:57:38;6.20;99.90
43673;DHT22;41723;49.326;8.430;2023-01-16T08:00:04;6.20;99.90
43673;DHT22;41723;49.326;8.430;2023-01-16T08:02:37;6.30;99.90
43673;DHT22;41723;49.326;8.430;2023-01-16T08:05:03;6.20;99.90
43673;DHT22;41723;49.326;8.430;2023-01-16T08:07:29;6.20;99.90
43673;DHT22;41723;49.326;8.430;2023-01-16T08:09:54;6.20;99.90
43673;DHT22;41723;49.326;8.430;2023-01-16T08:12:20;6.30;99.90
43673;DHT22;41723;49.326;8.430;2023-01-16T08:14:45;6.30;99.90
43673;DHT22;41723;49.326;8.430;2023-01-16T08:17:11;6.30;99.90
43673;DHT22;41723;49.326;8.430;2023-01-16T08:19:37;6.30;99.90
43673;DHT22;41723;49.326;8.430;2023-01-16T08:22:02;6.40;99.90
43673;DHT22;41723;49.326;8.430;2023-01-16T08:24:28;6.30;99.90
43673;DHT22;41723;49.326;8.430;2023-01-16T08:26:54;6.30;99.90
43673;DHT22;41723;49.326;8.430;2023-01-16T08:29:20;6.40;99.90
43673;DHT22;41723;49.326;8.430;2023-01-16T08:31:45;6.40;99.90
43673;DHT22;41723;49.326;8.430;2023-01-16T08:34:11;6.40;99.90
43673;DHT22;41723;49.326;8.430;2023-01-16T08:36:36;6.40;99.90
43673;DHT22;41723;49.326;8.430;2023-01-16T08:39:02;6.30;99.90
43673;DHT22;41723;49.326;8.430;2023-01-16T08:41:28;6.30;99.90
43673;DHT22;41723;49.326;8.430;2023-01-16T08:44:12;6.20;99.90
43673;DHT22;41723;49.326;8.430;2023-01-16T08:47:03;6.20;99.90
43673;DHT22;41723;49.326;8.430;2023-01-16T08:49:48;6.20;99.90
43673;DHT22;41723;49.326;8.430;2023-01-16T08:52:33;6.20;99.90
43673;DHT22;41723;49.326;8.430;2023-01-16T08:54:59;6.20;99.90
43673;DHT22;41723;49.326;8.430;2023-01-16T08:57:26;6.20;99.90
43673;DHT22;41723;49.326;8.430;2023-01-16T08:59:53;6.20;99.90
43673;DHT22;41723;49.326;8.430;2023-01-16T09:02:18;6.20;99.90
43673;DHT22;41723;49.326;8.430;2023-01-16T09:04:44;6.30;99.90
43673;DHT22;41723;49.326;8.430;2023-01-16T09:07:10;6.30;99.90
43673;DHT22;41723;49.326;8.430;2023-01-16T09:09:36;6.20;99.90
43673;DHT22;41723;49.326;8.430;2023-01-16T09:12:02;6.30;99.90
43673;DHT22;41723;49.326;8.430;2023-01-16T09:14:46;6.30;99.90
43673;DHT22;41723;49.326;8.430;2023-01-16T09:17:12;6.30;99.90
43673;DHT22;41723;49.326;8.430;2023-01-16T09:19:37;6.40;99.90
43673;DHT22;41723;49.326;8.430;2023-01-16T09:22:03;6.40;99.90
43673;DHT22;41723;49.326;8.430;2023-01-16T09:24:32;6.50;99.90
43673;DHT22;41723;49.326;8.430;2023-01-16T09:26:58;6.60;99.90
43673;DHT22;41723;49.326;8.430;2023-01-16T09:29:24;6.60;99.90
43673;DHT22;41723;49.326;8.430;2023-01-16T09:31:52;6.60;99.90
43673;DHT22;41723;49.326;8.430;2023-01-16T09:34:17;6.60;99.90
43673;DHT22;41723;49.326;8.430;2023-01-16T09:36:43;6.70;99.90
43673;DHT22;41723;49.326;8.430;2023-01-16T09:39:09;6.70;99.90
43673;DHT22;41723;49.326;8.430;2023-01-16T09:41:35;6.70;99.90
43673;DHT22;41723;49.326;8.430;2023-01-16T09:44:22;6.80;99.90
43673;DHT22;41723;49.326;8.430;2023-01-16T09:46:48;6.80;99.90
43673;DHT22;41723;49.326;8.430;2023-01-16T09:49:19;6.80;99.90
43673;DHT22;41723;49.326;8.430;2023-01-16T09:51:52;7.00;99.90
43673;DHT22;41723;49.326;8.430;2023-01-16T09:54:41;6.80;99.90
43673;DHT22;41723;49.326;8.430;2023-01-16T09:57:28;6.90;99.90
43673;DHT22;41723;49.326;8.430;2023-01-16T10:00:14;6.90;99.90
43673;DHT22;41723;49.326;8.430;2023-01-16T10:02:40;6.90;99.90
43673;DHT22;41723;49.326;8.430;2023-01-16T10:05:06;6.80;99.90
43673;DHT22;41723;49.326;8.430;2023-01-16T10:12:29;6.70;99.90
43673;DHT22;41723;49.326;8.430;2023-01-16T10:20:00;6.60;99.90
43673;DHT22;41723;49.326;8.430;2023-01-16T10:30:04;6.70;99.90
43673;DHT22;41723;49.326;8.430;2023-01-16T10:32:45;6.70;99.90
43673;DHT22;41723;49.326;8.430;2023-01-16T10:35:34;6.70;99.90
43673;DHT22;41723;49.326;8.430;2023-01-16T10:38:25;6.70;99.90
43673;DHT22;41723;49.326;8.430;2023-01-16T10:40:55;6.80;99.90
43673;DHT22;41723;49.326;8.430;2023-01-16T10:43:34;6.80;99.90
43673;DHT22;41723;49.326;8.430;2023-01-16T10:46:20;6.80;99.90
43673;DHT22;41723;49.326;8.430;2023-01-16T10:49:21;6.80;99.90
43673;DHT22;41723;49.326;8.430;2023-01-16T10:52:00;6.80;99.90
43673;DHT22;41723;49.326;8.430;2023-01-16T10:54:26;6.70;99.90
43673;DHT22;41723;49.326;8.430;2023-01-16T10:56:52;6.70;99.90
43673;DHT22;41723;49.326;8.430;2023-01-16T10:59:18;6.60;99.90
43673;DHT22;41723;49.326;8.430;2023-01-16T11:01:45;6.70;99.90
43673;DHT22;41723;49.326;8.430;2023-01-16T11:04:12;6.60;99.90
43673;DHT22;41723;49.326;8.430;2023-01-16T11:06:37;6.70;99.90
43673;DHT22;41723;49.326;8.430;2023-01-16T11:09:15;6.70;99.90
43673;DHT22;41723;49.326;8.430;2023-01-16T11:11:42;6.60;99.90
43673;DHT22;41723;49.326;8.430;2023-01-16T11:20:02;6.70;99.90
43673;DHT22;41723;49.326;8.430;2023-01-16T11:22:27;6.70;99.90
43673;DHT22;41723;49.326;8.430;2023-01-16T11:24:54;6.80;99.90
43673;DHT22;41723;49.326;8.430;2023-01-16T11:27:23;6.70;99.90
43673;DHT22;41723;49.326;8.430;2023-01-16T11:29:51;6.70;99.90
43673;DHT22;41723;49.326;8.430;2023-01-16T11:32:17;6.80;99.90
43673;DHT22;41723;49.326;8.430;2023-01-16T11:34:50;6.70;99.90
43673;DHT22;41723;49.326;8.430;2023-01-16T11:37:17;6.70;99.90
43673;DHT22;41723;49.326;8.430;2023-01-16T11:39:46;6.70;99.90
43673;DHT22;41723;49.326;8.430;2023-01-16T11:42:12;6.80;99.90
43673;DHT22;41723;49.326;8.430;2023-01-16T11:44:57;6.80;99.90
43673;DHT22;41723;49.326;8.430;2023-01-16T11:47:44;6.90;99.90
43673;DHT22;41723;49.326;8.430;2023-01-16T11:50:35;6.90;99.90
43673;DHT22;41723;49.326;8.430;2023-01-16T11:53:01;6.90;99.90
43673;DHT22;41723;49.326;8.430;2023-01-16T11:55:42;7.00;99.90
43673;DHT22;41723;49.326;8.430;2023-01-16T11:58:56;7.10;99.90
43673;DHT22;41723;49.326;8.430;2023-01-16T12:03:35;7.00;99.90
43673;DHT22;41723;49.326;8.430;2023-01-16T12:16:39;7.30;99.90
43673;DHT22;41723;49.326;8.430;2023-01-16T12:27:07;7.50;99.90
43673;DHT22;41723;49.326;8.430;2023-01-16T12:32:13;7.60;99.90
43673;DHT22;41723;49.326;8.430;2023-01-16T12:40:09;7.70;99.90
43673;DHT22;41723;49.326;8.430;2023-01-16T12:42:51;7.70;99.90
43673;DHT22;41723;49.326;8.430;2023-01-16T12:46:01;7.80;99.90
43673;DHT22;41723;49.326;8.430;2023-01-16T12:56:26;7.80;99.90
43673;DHT22;41723;49.326;8.430;2023-01-16T12:58:54;7.80;99.90
43673;DHT22;41723;49.326;8.430;2023-01-16T13:01:25;7.80;99.90
43673;DHT22;41723;49.326;8.430;2023-01-16T13:03:58;7.90;99.90
43673;DHT22;41723;49.326;8.430;2023-01-16T13:06:36;7.90;99.90
43673;DHT22;41723;49.326;8.430;2023-01-16T13:09:04;8.00;99.90
43673;DHT22;41723;49.326;8.430;2023-01-16T13:11:46;8.00;99.90
43673;DHT22;41723;49.326;8.430;2023-01-16T13:14:31;8.00;99.90
43673;DHT22;41723;49.326;8.430;2023-01-16T13:16:59;8.10;99.90
43673;DHT22;41723;49.326;8.430;2023-01-16T13:19:27;8.10;99.90
43673;DHT22;41723;49.326;8.430;2023-01-16T13:21:56;8.10;99.90
43673;DHT22;41723;49.326;8.430;2023-01-16T13:24:27;8.10;99.90
43673;DHT22;41723;49.326;8.430;2023-01-16T13:26:56;8.10;99.90
43673;DHT22;41723;49.326;8.430;2023-01-16T13:29:33;8.20;99.90
43673;DHT22;41723;49.326;8.430;2023-01-16T13:32:09;8.10;99.90
43673;DHT22;41723;49.326;8.430;2023-01-16T13:34:38;8.20;99.90
43673;DHT22;41723;49.326;8.430;2023-01-16T13:42:03;8.20;99.90
43673;DHT22;41723;49.326;8.430;2023-01-16T13:44:30;8.30;99.90
43673;DHT22;41723;49.326;8.430;2023-01-16T13:47:21;8.30;99.90
43673;DHT22;41723;49.326;8.430;2023-01-16T13:49:49;8.40;99.90
43673;DHT22;41723;49.326;8.430;2023-01-16T13:52:35;8.40;99.90
43673;DHT22;41723;49.326;8.430;2023-01-16T13:55:05;8.40;99.90
43673;DHT22;41723;49.326;8.430;2023-01-16T13:57:31;8.50;99.90
43673;DHT22;41723;49.326;8.430;2023-01-16T13:59:59;8.50;99.90
43673;DHT22;41723;49.326;8.430;2023-01-16T14:07:48;8.60;99.60
43673;DHT22;41723;49.326;8.430;2023-01-16T14:10:39;8.60;99.60
43673;DHT22;41723;49.326;8.430;2023-01-16T14:19:00;8.80;99.10
43673;DHT22;41723;49.326;8.430;2023-01-16T14:21:28;8.80;98.90
43673;DHT22;41723;49.326;8.430;2023-01-16T14:24:05;8.80;99.00
43673;DHT22;41723;49.326;8.430;2023-01-16T14:26:45;8.80;98.90
43673;DHT22;41723;49.326;8.430;2023-01-16T14:31:40;8.80;98.90
43673;DHT22;41723;49.326;8.430;2023-01-16T14:34:10;8.70;99.00
43673;DHT22;41723;49.326;8.430;2023-01-16T14:36:40;8.60;99.10
43673;DHT22;41723;49.326;8.430;2023-01-16T14:39:24;8.60;98.90
43673;DHT22;41723;49.326;8.430;2023-01-16T14:41:50;8.60;99.40
43673;DHT22;41723;49.326;8.430;2023-01-16T14:44:35;8.50;99.40
43673;DHT22;41723;49.326;8.430;2023-01-16T14:47:44;8.50;99.50
43673;DHT22;41723;49.326;8.430;2023-01-16T14:50:44;8.50;99.90
43673;DHT22;41723;49.326;8.430;2023-01-16T14:53:35;8.40;99.90
43673;DHT22;41723;49.326;8.430;2023-01-16T14:56:29;8.40;99.90
43673;DHT22;41723;49.326;8.430;2023-01-16T15:01:33;8.20;99.90
43673;DHT22;41723;49.326;8.430;2023-01-16T15:04:21;8.10;99.90
43673;DHT22;41723;49.326;8.430;2023-01-16T15:06:52;7.90;99.90
43673;DHT22;41723;49.326;8.430;2023-01-16T15:09:19;7.90;99.90
43673;DHT22;41723;49.326;8.430;2023-01-16T15:11:52;7.80;99.90
43673;DHT22;41723;49.326;8.430;2023-01-16T15:14:20;7.80;99.90
43673;DHT22;41723;49.326;8.430;2023-01-16T15:16:57;7.60;99.90
43673;DHT22;41723;49.326;8.430;2023-01-16T15:19:54;7.60;99.90
43673;DHT22;41723;49.326;8.430;2023-01-16T15:22:45;7.40;99.90
43673;DHT22;41723;49.326;8.430;2023-01-16T15:28:02;7.20;99.90
43673;DHT22;41723;49.326;8.430;2023-01-16T15:30:31;7.20;99.90
43673;DHT22;41723;49.326;8.430;2023-01-16T15:32:58;7.10;99.90
43673;DHT22;41723;49.326;8.430;2023-01-16T15:35:43;7.20;99.90
43673;DHT22;41723;49.326;8.430;2023-01-16T15:38:10;7.20;99.90
43673;DHT22;41723;49.326;8.430;2023-01-16T15:40:37;7.10;99.90
43673;DHT22;41723;49.326;8.430;2023-01-16T15:43:03;7.10;99.90
43673;DHT22;41723;49.326;8.430;2023-01-16T15:45:58;7.10;99.90
43673;DHT22;41723;49.326;8.430;2023-01-16T15:48:45;7.10;99.90
43673;DHT22;41723;49.326;8.430;2023-01-16T15:51:14;7.10;99.90
43673;DHT22;41723;49.326;8.430;2023-01-16T15:53:43;7.10;99.90
43673;DHT22;41723;49.326;8.430;2023-01-16T15:58:36;7.10;99.90
43673;DHT22;41723;49.326;8.430;2023-01-16T16:01:05;7.10;99.90
43673;DHT22;41723;49.326;8.430;2023-01-16T16:04:04;7.00;99.90
43673;DHT22;41723;49.326;8.430;2023-01-16T16:06:23;7.00;99.90
43673;DHT22;41723;49.326;8.430;2023-01-16T16:08:50;7.00;99.90
43673;DHT22;41723;49.326;8.430;2023-01-16T16:11:18;6.90;99.90
43673;DHT22;41723;49.326;8.430;2023-01-16T16:14:03;6.80;99.90
43673;DHT22;41723;49.326;8.430;2023-01-16T16:16:59;6.70;99.90
43673;DHT22;41723;49.326;8.430;2023-01-16T16:19:43;6.70;99.90
43673;DHT22;41723;49.326;8.430;2023-01-16T16:22:09;6.60;99.90
43673;DHT22;41723;49.326;8.430;2023-01-16T16:24:54;6.50;99.90
43673;DHT22;41723;49.326;8.430;2023-01-16T16:27:19;6.50;99.90
43673;DHT22;41723;49.326;8.430;2023-01-16T16:29:49;6.50;99.90
43673;DHT22;41723;49.326;8.430;2023-01-16T16:32:15;6.50;99.90
43673;DHT22;41723;49.326;8.430;2023-01-16T16:34:48;6.40;99.90
43673;DHT22;41723;49.326;8.430;2023-01-16T16:37:15;6.40;99.90
43673;DHT22;41723;49.326;8.430;2023-01-16T16:39:47;6.40;99.90
43673;DHT22;41723;49.326;8.430;2023-01-16T16:47:36;6.20;99.90
43673;DHT22;41723;49.326;8.430;2023-01-16T16:50:36;6.20;99.90
43673;DHT22;41723;49.326;8.430;2023-01-16T16:55:39;6.20;99.90
43673;DHT22;41723;49.326;8.430;2023-01-16T16:58:11;6.20;99.90
43673;DHT22;41723;49.326;8.430;2023-01-16T17:00:37;6.20;99.90
43673;DHT22;41723;49.326;8.430;2023-01-16T17:03:21;6.10;99.90
43673;DHT22;41723;49.326;8.430;2023-01-16T17:05:47;6.20;99.90
43673;DHT22;41723;49.326;8.430;2023-01-16T17:08:23;6.10;99.90
43673;DHT22;41723;49.326;8.430;2023-01-16T17:10:50;6.20;99.90
43673;DHT22;41723;49.326;8.430;2023-01-16T17:13:16;6.10;99.90
43673;DHT22;41723;49.326;8.430;2023-01-16T17:15:42;6.00;99.90
43673;DHT22;41723;49.326;8.430;2023-01-16T17:18:11;6.00;99.90
43673;DHT22;41723;49.326;8.430;2023-01-16T17:20:37;6.00;99.90
43673;DHT22;41723;49.326;8.430;2023-01-16T17:23:08;6.00;99.90
43673;DHT22;41723;49.326;8.430;2023-01-16T17:25:34;6.00;99.90
43673;DHT22;41723;49.326;8.430;2023-01-16T17:27:59;5.90;99.90
43673;DHT22;41723;49.326;8.430;2023-01-16T17:30:25;5.90;99.90
43673;DHT22;41723;49.326;8.430;2023-01-16T17:32:57;5.90;99.90
43673;DHT22;41723;49.326;8.430;2023-01-16T17:35:24;5.90;99.90
43673;DHT22;41723;49.326;8.430;2023-01-16T17:37:50;5.90;99.90
43673;DHT22;41723;49.326;8.430;2023-01-16T17:40:16;5.90;99.90
43673;DHT22;41723;49.326;8.430;2023-01-16T17:42:41;5.90;99.90
43673;DHT22;41723;49.326;8.430;2023-01-16T17:45:45;5.90;99.90
43673;DHT22;41723;49.326;8.430;2023-01-16T17:48:26;5.90;99.90
43673;DHT22;41723;49.326;8.430;2023-01-16T17:50:52;5.80;99.90
43673;DHT22;41723;49.326;8.430;2023-01-16T17:53:19;5.80;99.90
43673;DHT22;41723;49.326;8.430;2023-01-16T17:55:46;5.80;99.90
43673;DHT22;41723;49.326;8.430;2023-01-16T17:58:25;5.70;99.90
43673;DHT22;41723;49.326;8.430;2023-01-16T18:00:58;5.70;99.90
43673;DHT22;41723;49.326;8.430;2023-01-16T18:03:23;5.60;99.90
43673;DHT22;41723;49.326;8.430;2023-01-16T18:05:49;5.60;99.90
43673;DHT22;41723;49.326;8.430;2023-01-16T18:08:15;5.60;99.90
43673;DHT22;41723;49.326;8.430;2023-01-16T18:10:41;5.50;99.90
43673;DHT22;41723;49.326;8.430;2023-01-16T18:13:08;5.50;99.90
43673;DHT22;41723;49.326;8.430;2023-01-16T18:15:52;5.50;99.90
43673;DHT22;41723;49.326;8.430;2023-01-16T18:18:36;5.50;99.90
43673;DHT22;41723;49.326;8.430;2023-01-16T18:21:07;5.40;99.90